createdAt,value
2022-12-24T00:04:12.820Z,3.70
2022-12-24T00:09:16.384Z,3.90
2022-12-24T00:14:21.315Z,3.97
2022-12-24T00:19:24.955Z,4.33
2022-12-24T00:24:28.495Z,3.97
2022-12-24T00:29:33.730Z,3.60
2022-12-24T00:34:37.455Z,3.37
2022-12-24T00:39:41.172Z,2.60
2022-12-24T00:44:46.564Z,2.30
2022-12-24T00:49:50.086Z,2.00
2022-12-24T00:54:53.647Z,1.77
2022-12-24T00:59:58.549Z,1.73
2022-12-24T01:05:14.081Z,1.27
2022-12-24T01:10:20.003Z,1.40
2022-12-24T01:15:25.237Z,1.13
2022-12-24T01:20:31.794Z,1.43
2022-12-24T01:25:35.277Z,1.87
2022-12-24T01:30:42.135Z,3.70
2022-12-24T01:35:46.265Z,3.93
2022-12-24T01:41:06.872Z,4.10
2022-12-24T01:46:18.411Z,1.30
2022-12-24T01:51:29.264Z,1.50
2022-12-24T01:56:33.560Z,1.30
2022-12-24T02:01:38.901Z,1.30
2022-12-24T02:06:42.396Z,1.57
2022-12-24T02:11:46.055Z,2.30
2022-12-24T02:16:59.090Z,4.70
2022-12-24T02:22:05.369Z,3.37
2022-12-24T02:27:18.292Z,2.87
2022-12-24T02:32:26.225Z,4.43
2022-12-24T02:37:35.723Z,2.63
2022-12-24T02:42:42.412Z,2.13
2022-12-24T02:47:48.043Z,2.50
2022-12-24T02:52:52.114Z,2.33
2022-12-24T02:58:17.685Z,1.67
2022-12-24T03:03:35.545Z,1.83
2022-12-24T03:08:46.610Z,1.47
2022-12-24T03:13:51.592Z,1.60
2022-12-24T03:18:58.224Z,1.50
2022-12-24T03:24:01.980Z,2.03
2022-12-24T03:29:07.887Z,1.60
2022-12-24T03:34:13.856Z,1.80
2022-12-24T03:39:18.079Z,1.80
2022-12-24T03:44:21.593Z,1.67
2022-12-24T03:49:26.576Z,4.00
2022-12-24T03:54:30.120Z,1.90
2022-12-24T03:59:33.692Z,1.90
2022-12-24T04:04:38.577Z,1.60
2022-12-24T04:09:42.286Z,1.30
2022-12-24T04:14:45.753Z,2.00
2022-12-24T04:19:50.732Z,1.73
2022-12-24T04:24:54.294Z,2.50
2022-12-24T04:29:57.807Z,1.60
2022-12-24T04:35:02.794Z,1.30
2022-12-24T04:40:07.293Z,1.03
2022-12-24T04:45:11.527Z,0.80
2022-12-24T04:50:16.492Z,1.13
2022-12-24T04:55:20.150Z,0.80
2022-12-24T05:00:23.862Z,1.10
2022-12-24T05:05:28.773Z,1.80
2022-12-24T05:10:32.341Z,1.53
2022-12-24T05:15:35.822Z,0.57
2022-12-24T05:20:42.656Z,0.37
2022-12-24T05:26:14.863Z,5.17
2022-12-24T05:31:18.437Z,3.50
2022-12-24T05:36:24.419Z,3.80
2022-12-24T05:41:28.022Z,3.33
2022-12-24T05:46:31.523Z,3.27
2022-12-24T05:51:36.719Z,3.03
2022-12-24T05:56:40.321Z,1.20
2022-12-24T06:01:47.411Z,1.13
2022-12-24T06:06:52.565Z,0.93
2022-12-24T06:11:56.619Z,3.27
2022-12-24T06:17:00.299Z,2.93
2022-12-24T06:22:05.369Z,1.30
2022-12-24T06:27:08.910Z,0.70
2022-12-24T06:32:12.549Z,5.60
2022-12-24T06:37:19.126Z,3.20
2022-12-24T06:42:24.601Z,2.50
2022-12-24T06:47:28.242Z,1.90
2022-12-24T06:52:33.419Z,2.53
2022-12-24T06:57:37.144Z,1.87
2022-12-24T07:02:41.848Z,1.50
2022-12-24T07:07:47.644Z,1.97
2022-12-24T07:12:51.714Z,3.27
2022-12-24T07:17:55.279Z,2.93
2022-12-24T07:23:00.446Z,2.30
2022-12-24T07:28:04.244Z,2.30
2022-12-24T07:33:08.668Z,5.17
2022-12-24T07:38:13.925Z,2.40
2022-12-24T07:43:17.716Z,1.03
2022-12-24T07:48:21.552Z,5.63
2022-12-24T07:53:27.443Z,4.50
2022-12-24T07:58:31.165Z,0.40
2022-12-24T08:03:40.187Z,0.67
2022-12-24T08:08:45.719Z,0.37
2022-12-24T08:13:54.543Z,0.20
2022-12-24T08:19:06.365Z,3.90
2022-12-24T08:24:11.334Z,2.30
2022-12-24T08:29:14.872Z,0.43
2022-12-24T08:34:18.509Z,0.90
2022-12-24T08:39:23.683Z,0.50
2022-12-24T08:44:27.285Z,0.83
2022-12-24T08:49:30.854Z,0.33
2022-12-24T08:54:35.878Z,1.97
2022-12-24T08:59:39.448Z,1.63
2022-12-24T09:04:43.496Z,5.63
2022-12-24T09:09:49.100Z,6.57
2022-12-24T09:14:59.577Z,12.13
2022-12-24T09:20:08.296Z,13.20
2022-12-24T09:25:13.485Z,8.90
2022-12-24T09:30:17.752Z,4.60
2022-12-24T09:35:21.320Z,8.83
2022-12-24T09:40:30.113Z,7.03
2022-12-24T09:45:36.642Z,6.50
2022-12-24T09:50:43.000Z,8.87
2022-12-24T09:55:51.169Z,14.30
2022-12-24T10:00:56.008Z,5.43
2022-12-24T10:06:09.052Z,6.23
2022-12-24T10:11:25.259Z,7.80
2022-12-24T10:16:38.573Z,5.13
2022-12-24T10:21:52.231Z,3.70
2022-12-24T10:27:01.274Z,3.67
2022-12-24T10:32:17.713Z,2.87
2022-12-24T10:37:25.090Z,3.67
2022-12-24T10:42:38.087Z,4.60
2022-12-24T10:47:44.373Z,4.00
2022-12-24T10:52:48.746Z,3.90
2022-12-24T10:58:03.272Z,2.83
2022-12-24T11:03:26.702Z,2.90
2022-12-24T11:08:31.846Z,2.87
2022-12-24T11:13:41.187Z,3.20
2022-12-24T11:18:52.184Z,3.43
2022-12-24T11:23:59.224Z,3.83
2022-12-24T11:29:16.383Z,11.83
2022-12-24T11:34:28.678Z,13.93
2022-12-24T11:39:40.931Z,3.77
2022-12-24T11:44:51.700Z,3.77
2022-12-24T11:50:07.303Z,3.57
2022-12-24T11:55:23.888Z,3.43
2022-12-24T12:00:30.003Z,4.03
2022-12-24T12:05:36.113Z,4.30
2022-12-24T12:10:41.479Z,6.77
2022-12-24T12:15:51.597Z,6.57
2022-12-24T12:21:03.562Z,4.33
2022-12-24T12:26:11.931Z,4.63
2022-12-24T12:31:24.383Z,4.13
2022-12-24T12:36:36.251Z,12.83
2022-12-24T12:41:54.609Z,7.77
2022-12-24T12:47:14.682Z,6.67
2022-12-24T12:52:25.540Z,6.17
2022-12-24T12:57:38.101Z,6.30
2022-12-24T13:03:26.463Z,6.03
2022-12-24T13:08:51.392Z,12.47
2022-12-24T13:14:22.814Z,8.70
2022-12-24T13:19:44.243Z,8.77
2022-12-24T13:24:54.294Z,5.83
2022-12-24T13:30:08.792Z,7.07
2022-12-24T13:35:45.345Z,6.57
2022-12-24T13:40:49.343Z,34.03
2022-12-24T13:45:53.784Z,30.63
2022-12-24T13:51:02.707Z,53.30
2022-12-24T13:56:10.930Z,9.00
2022-12-24T14:01:17.552Z,6.90
2022-12-24T14:06:27.963Z,10.30
2022-12-24T14:11:53.277Z,6.40
2022-12-24T14:17:00.791Z,5.40
2022-12-24T14:22:16.476Z,5.47
2022-12-24T14:27:34.271Z,8.47
2022-12-24T14:32:40.736Z,19.63
2022-12-24T14:37:48.783Z,7.20
2022-12-24T14:43:02.775Z,3.30
2022-12-24T14:48:18.301Z,1.80
2022-12-24T14:53:49.557Z,2.43
2022-12-24T14:58:53.469Z,3.20
2022-12-24T15:04:06.163Z,3.10
2022-12-24T15:09:22.835Z,2.50
2022-12-24T15:14:28.494Z,2.63
2022-12-24T15:19:35.865Z,1.93
2022-12-24T15:24:47.042Z,2.30
2022-12-24T15:29:53.119Z,3.57
2022-12-24T15:34:57.300Z,6.90
2022-12-24T15:40:09.349Z,2.90
2022-12-24T15:45:21.633Z,3.70
2022-12-24T15:50:32.260Z,2.63
2022-12-24T15:55:41.111Z,3.83
2022-12-24T16:00:44.948Z,2.10
2022-12-24T16:05:59.976Z,3.90
2022-12-24T16:11:24.225Z,4.77
2022-12-24T16:16:36.357Z,4.13
2022-12-24T16:21:42.744Z,5.57
2022-12-24T16:26:48.344Z,5.33
2022-12-24T16:31:53.325Z,6.23
2022-12-24T16:36:57.322Z,6.17
2022-12-24T16:42:20.583Z,7.07
2022-12-24T16:47:27.273Z,6.37
2022-12-24T16:52:33.797Z,5.80
2022-12-24T16:57:41.700Z,7.40
2022-12-24T17:02:45.550Z,5.00
2022-12-24T17:07:49.265Z,6.17
2022-12-24T17:12:54.212Z,5.97
2022-12-24T17:17:57.760Z,8.17
2022-12-24T17:23:01.811Z,11.20
2022-12-24T17:28:06.929Z,7.07
2022-12-24T17:33:14.547Z,6.40
2022-12-24T17:38:18.622Z,6.90
2022-12-24T17:43:23.542Z,5.80
2022-12-24T17:48:27.136Z,16.80
2022-12-24T17:53:30.632Z,8.20
2022-12-24T17:58:35.934Z,6.93
2022-12-24T18:03:39.585Z,7.90
2022-12-24T18:08:44.558Z,7.47
2022-12-24T18:13:50.841Z,6.80
2022-12-24T18:18:55.313Z,7.77
2022-12-24T18:23:59.543Z,6.50
2022-12-24T18:29:05.950Z,6.47
2022-12-24T18:34:13.117Z,6.57
2022-12-24T18:39:16.581Z,9.50
2022-12-24T18:44:25.441Z,10.97
2022-12-24T18:49:29.509Z,11.53
2022-12-24T18:54:33.025Z,12.80
2022-12-24T18:59:39.245Z,13.07
2022-12-24T19:04:42.872Z,14.40
2022-12-24T19:09:48.588Z,13.70
2022-12-24T19:14:53.707Z,13.73
2022-12-24T19:19:57.227Z,14.60
2022-12-24T19:25:00.985Z,20.23
2022-12-24T19:30:07.139Z,27.77
2022-12-24T19:35:11.066Z,37.50
2022-12-24T19:40:16.875Z,26.03
2022-12-24T19:45:22.382Z,30.30
2022-12-24T19:50:25.957Z,15.97
2022-12-24T19:55:30.631Z,23.90
2022-12-24T20:00:35.674Z,15.03
2022-12-24T20:05:44.299Z,16.20
2022-12-24T20:10:48.748Z,16.27
2022-12-24T20:15:54.559Z,15.63
2022-12-24T20:21:00.576Z,14.73
2022-12-24T20:26:06.775Z,12.63
2022-12-24T20:31:20.545Z,15.27
2022-12-24T20:36:26.816Z,13.30
2022-12-24T20:41:32.854Z,13.00
2022-12-24T20:46:37.917Z,13.23
2022-12-24T20:51:41.511Z,12.53
2022-12-24T20:56:45.104Z,14.63
2022-12-24T21:02:03.074Z,15.13
2022-12-24T21:07:07.036Z,13.03
2022-12-24T21:12:29.676Z,14.73
2022-12-24T21:17:34.775Z,15.70
2022-12-24T21:22:38.291Z,16.73
2022-12-24T21:27:41.989Z,17.90
2022-12-24T21:32:47.287Z,17.33
2022-12-24T21:37:51.430Z,15.40
2022-12-24T21:42:55.147Z,14.80
2022-12-24T21:48:20.297Z,13.73
2022-12-24T21:53:41.353Z,14.07
2022-12-24T21:58:45.808Z,14.30
2022-12-24T22:03:51.758Z,15.23
2022-12-24T22:09:12.578Z,14.37
2022-12-24T22:14:16.271Z,14.73
2022-12-24T22:19:21.423Z,16.17
2022-12-24T22:24:26.009Z,15.53
2022-12-24T22:29:29.630Z,15.07
2022-12-24T22:34:36.434Z,14.90
2022-12-24T22:39:40.431Z,14.43
2022-12-24T22:44:44.232Z,14.23
2022-12-24T22:49:51.048Z,13.57
2022-12-24T22:54:54.849Z,13.67
2022-12-24T22:59:58.661Z,15.27
2022-12-24T23:05:03.930Z,14.87
2022-12-24T23:10:09.106Z,15.97
2022-12-24T23:15:13.511Z,15.20
2022-12-24T23:20:18.911Z,14.80
2022-12-24T23:25:22.594Z,13.70
2022-12-24T23:31:13.601Z,14.00
2022-12-24T23:36:19.213Z,13.43
2022-12-24T23:41:23.502Z,13.70
2022-12-24T23:46:27.219Z,14.73
2022-12-24T23:51:32.567Z,16.33
2022-12-24T23:56:36.448Z,17.60
